createdAt,value
2019-05-06T00:00:55.734Z,37.60
2019-05-06T00:02:13.774Z,35.20
2019-05-06T00:03:39.348Z,47.47
2019-05-06T00:05:05.066Z,44.50
2019-05-06T00:06:30.787Z,48.47
2019-05-06T00:07:56.574Z,45.40
2019-05-06T00:09:24.042Z,50.77
2019-05-06T00:10:49.645Z,41.40
2019-05-06T00:12:15.220Z,41.00
2019-05-06T00:13:40.662Z,51.83
2019-05-06T00:15:07.294Z,53.13
2019-05-06T00:16:34.648Z,34.57
2019-05-06T00:18:00.313Z,47.77
2019-05-06T00:19:25.785Z,46.77
2019-05-06T00:20:51.268Z,42.03
2019-05-06T00:22:16.988Z,43.33
2019-05-06T00:23:48.400Z,47.60
2019-05-06T00:25:17.768Z,43.27
2019-05-06T00:26:58.734Z,48.83
2019-05-06T00:28:35.298Z,39.90
2019-05-06T00:30:00.776Z,42.70
2019-05-06T00:31:26.260Z,46.47
2019-05-06T00:32:53.743Z,43.00
2019-05-06T00:34:18.922Z,48.47
2019-05-06T00:35:45.020Z,49.80
2019-05-06T00:37:10.715Z,46.13
2019-05-06T00:38:36.826Z,49.30
2019-05-06T00:40:11.311Z,50.00
2019-05-06T00:41:36.853Z,47.80
2019-05-06T00:43:04.863Z,53.00
2019-05-06T00:44:30.621Z,45.27
2019-05-06T00:45:56.144Z,46.80
2019-05-06T00:47:21.590Z,47.43
2019-05-06T00:48:47.073Z,44.10
2019-05-06T00:50:14.268Z,44.13
2019-05-06T00:51:39.928Z,50.90
2019-05-06T00:53:07.331Z,40.73
2019-05-06T00:54:34.049Z,49.60
2019-05-06T00:55:59.831Z,46.70
2019-05-06T00:57:44.217Z,57.13
2019-05-06T00:59:09.808Z,43.93
2019-05-06T01:00:38.516Z,44.97
2019-05-06T01:02:04.624Z,44.47
2019-05-06T01:03:30.213Z,48.40
2019-05-06T01:04:55.691Z,42.13
2019-05-06T01:06:21.300Z,45.20
2019-05-06T01:07:46.859Z,46.20
2019-05-06T01:09:14.926Z,48.50
2019-05-06T01:10:40.483Z,51.37
2019-05-06T01:12:07.111Z,48.60
2019-05-06T01:13:40.382Z,46.20
2019-05-06T01:15:08.932Z,50.23
2019-05-06T01:16:34.612Z,42.47
2019-05-06T01:18:00.121Z,63.87
2019-05-06T01:19:25.783Z,49.53
2019-05-06T01:20:54.240Z,50.77
2019-05-06T01:22:19.891Z,46.30
2019-05-06T01:23:46.095Z,48.60
2019-05-06T01:25:11.671Z,53.47
2019-05-06T01:26:37.132Z,46.50
2019-05-06T01:28:04.277Z,47.53
2019-05-06T01:29:29.655Z,48.27
2019-05-06T01:30:55.132Z,51.27
2019-05-06T01:32:20.651Z,46.67
2019-05-06T01:33:46.216Z,45.57
2019-05-06T01:35:13.890Z,42.00
2019-05-06T01:36:38.877Z,48.07
2019-05-06T01:38:33.969Z,51.80
2019-05-06T01:40:16.363Z,46.63
2019-05-06T01:42:09.500Z,48.23
2019-05-06T01:43:35.571Z,50.63
2019-05-06T01:45:01.041Z,56.67
2019-05-06T01:46:26.526Z,44.27
2019-05-06T01:47:52.014Z,50.77
2019-05-06T01:49:17.523Z,53.27
2019-05-06T01:50:44.517Z,59.77
2019-05-06T01:52:10.068Z,53.20
2019-05-06T01:53:35.539Z,43.17
2019-05-06T01:55:00.984Z,50.53
2019-05-06T01:56:26.469Z,57.07
2019-05-06T01:57:51.924Z,52.93
2019-05-06T01:59:17.408Z,47.23
2019-05-06T02:00:43.743Z,58.57
2019-05-06T02:02:09.472Z,50.87
2019-05-06T02:03:34.949Z,49.87
2019-05-06T02:05:00.411Z,48.87
2019-05-06T02:06:25.978Z,46.67
2019-05-06T02:07:51.462Z,52.73
2019-05-06T02:09:17.520Z,52.53
2019-05-06T02:10:43.568Z,52.00
2019-05-06T02:12:09.270Z,50.27
2019-05-06T02:13:34.914Z,53.33
2019-05-06T02:15:00.519Z,54.70
2019-05-06T02:16:26.111Z,54.90
2019-05-06T02:17:51.712Z,57.33
2019-05-06T02:19:17.172Z,54.07
2019-05-06T02:20:44.533Z,47.50
2019-05-06T02:22:24.118Z,50.13
2019-05-06T02:23:54.864Z,54.40
2019-05-06T02:25:24.426Z,55.37
2019-05-06T02:26:49.928Z,61.47
2019-05-06T02:28:15.403Z,53.43
2019-05-06T02:29:47.068Z,53.87
2019-05-06T02:31:29.970Z,53.73
2019-05-06T02:33:04.178Z,56.87
2019-05-06T02:34:46.254Z,51.87
2019-05-06T02:36:26.013Z,51.23
2019-05-06T02:37:51.452Z,61.07
2019-05-06T02:39:16.949Z,60.53
2019-05-06T02:40:42.737Z,61.53
2019-05-06T02:42:09.077Z,57.70
2019-05-06T02:43:34.847Z,54.03
2019-05-06T02:45:03.699Z,49.77
2019-05-06T02:46:27.625Z,55.70
2019-05-06T02:48:13.726Z,56.10
2019-05-06T02:49:44.277Z,52.17
2019-05-06T02:51:18.705Z,60.10
2019-05-06T02:52:44.433Z,55.23
2019-05-06T02:54:10.163Z,53.03
2019-05-06T02:55:36.351Z,58.40
2019-05-06T02:57:04.240Z,51.80
2019-05-06T02:58:29.074Z,54.90
2019-05-06T02:59:55.646Z,59.43
2019-05-06T03:01:23.286Z,54.83
2019-05-06T03:02:48.824Z,53.30
2019-05-06T03:04:14.364Z,54.53
2019-05-06T03:05:39.864Z,50.17
2019-05-06T03:07:05.443Z,55.37
2019-05-06T03:08:32.825Z,49.10
2019-05-06T03:09:58.180Z,49.60
2019-05-06T03:11:24.154Z,59.77
2019-05-06T03:12:49.952Z,53.60
2019-05-06T03:14:15.473Z,56.13
2019-05-06T03:15:43.377Z,49.57
2019-05-06T03:17:08.152Z,60.17
2019-05-06T03:18:33.701Z,53.33
2019-05-06T03:20:04.011Z,49.93
2019-05-06T03:21:46.709Z,54.63
2019-05-06T03:23:14.208Z,47.07
2019-05-06T03:24:54.397Z,57.10
2019-05-06T03:26:23.397Z,48.77
2019-05-06T03:27:47.582Z,55.90
2019-05-06T03:29:13.713Z,65.80
2019-05-06T03:30:39.449Z,51.43
2019-05-06T03:32:07.172Z,51.83
2019-05-06T03:33:50.444Z,53.37
2019-05-06T03:35:19.603Z,63.70
2019-05-06T03:36:33.083Z,77.80
2019-05-06T03:37:53.606Z,70.10
2019-05-06T03:39:19.016Z,67.80
2019-05-06T03:40:45.849Z,75.83
2019-05-06T03:42:15.998Z,61.10
2019-05-06T03:43:38.745Z,66.43
2019-05-06T03:45:13.072Z,62.97
2019-05-06T03:46:55.360Z,63.37
2019-05-06T03:48:26.053Z,68.67
2019-05-06T03:49:54.473Z,73.23
2019-05-06T03:51:19.183Z,74.80
2019-05-06T03:52:45.140Z,75.03
2019-05-06T03:54:12.823Z,72.03
2019-05-06T03:55:39.207Z,68.17
2019-05-06T03:57:06.008Z,72.10
2019-05-06T03:58:34.694Z,74.50
2019-05-06T04:00:04.682Z,86.13
2019-05-06T04:01:28.837Z,80.53
2019-05-06T04:02:54.282Z,76.70
2019-05-06T04:04:20.036Z,91.43
2019-05-06T04:05:46.521Z,85.97
2019-05-06T04:07:13.912Z,91.87
2019-05-06T04:08:39.717Z,86.13
2019-05-06T04:10:05.669Z,81.73
2019-05-06T04:11:35.837Z,85.97
2019-05-06T04:13:03.926Z,76.97
2019-05-06T04:14:28.804Z,94.57
2019-05-06T04:16:22.808Z,84.83
2019-05-06T04:17:53.844Z,87.90
2019-05-06T04:19:27.388Z,77.83
2019-05-06T04:20:59.428Z,83.83
2019-05-06T04:22:44.013Z,89.43
2019-05-06T04:24:17.215Z,84.77
2019-05-06T04:26:13.391Z,87.13
2019-05-06T04:27:58.776Z,77.73
2019-05-06T04:29:24.437Z,78.77
2019-05-06T04:30:50.724Z,84.73
2019-05-06T04:32:17.777Z,81.27
2019-05-06T04:33:55.494Z,82.20
2019-05-06T04:35:13.483Z,83.57
2019-05-06T04:36:40.148Z,86.50
2019-05-06T04:38:06.071Z,87.20
2019-05-06T04:39:33.080Z,84.53
2019-05-06T04:40:59.159Z,86.63
2019-05-06T04:42:27.013Z,87.83
2019-05-06T04:43:53.361Z,83.10
2019-05-06T04:45:19.324Z,89.47
2019-05-06T04:46:44.885Z,83.37
2019-05-06T04:48:13.963Z,88.47
2019-05-06T04:49:38.803Z,87.07
2019-05-06T04:51:04.779Z,82.27
2019-05-06T04:52:33.975Z,86.30
2019-05-06T04:53:57.908Z,97.90
2019-05-06T04:55:23.478Z,74.00
2019-05-06T04:56:49.210Z,86.30
2019-05-06T04:58:14.802Z,73.40
2019-05-06T04:59:43.232Z,86.73
2019-05-06T05:01:11.879Z,85.30
2019-05-06T05:02:35.512Z,83.50
2019-05-06T05:04:03.398Z,80.33
2019-05-06T05:05:28.271Z,81.80
2019-05-06T05:06:56.748Z,84.47
2019-05-06T05:08:25.679Z,86.27
2019-05-06T05:09:54.921Z,74.10
2019-05-06T05:11:27.524Z,87.03
2019-05-06T05:13:23.895Z,74.23
2019-05-06T05:14:57.139Z,68.17
2019-05-06T05:16:33.732Z,70.80
2019-05-06T05:18:32.091Z,73.20
2019-05-06T05:19:57.805Z,63.77
2019-05-06T05:21:23.336Z,66.73
2019-05-06T05:22:52.834Z,67.27
2019-05-06T05:24:18.691Z,63.97
2019-05-06T05:25:44.132Z,64.00
2019-05-06T05:27:09.810Z,57.50
2019-05-06T05:28:36.112Z,58.57
2019-05-06T05:30:02.082Z,60.40
2019-05-06T05:31:27.844Z,59.67
2019-05-06T05:32:53.356Z,60.10
2019-05-06T05:34:19.055Z,53.00
2019-05-06T05:35:44.627Z,55.50
2019-05-06T05:37:12.039Z,56.50
2019-05-06T05:38:37.643Z,57.23
2019-05-06T05:40:03.393Z,58.10
2019-05-06T05:41:29.231Z,62.67
2019-05-06T05:43:04.738Z,55.23
2019-05-06T05:44:33.121Z,53.03
2019-05-06T05:45:58.812Z,54.93
2019-05-06T05:47:24.567Z,52.77
2019-05-06T05:49:12.084Z,63.37
2019-05-06T05:50:42.065Z,64.07
2019-05-06T05:52:07.774Z,57.80
2019-05-06T05:53:33.651Z,56.20
2019-05-06T05:54:59.288Z,53.87
2019-05-06T05:56:24.844Z,47.23
2019-05-06T05:57:51.911Z,60.63
2019-05-06T05:59:17.730Z,53.50
2019-05-06T06:00:43.323Z,56.87
2019-05-06T06:02:08.799Z,46.33
2019-05-06T06:03:34.445Z,48.47
2019-05-06T06:05:02.327Z,49.03
2019-05-06T06:06:27.183Z,46.23
2019-05-06T06:07:53.090Z,44.60
2019-05-06T06:09:21.862Z,49.43
2019-05-06T06:10:54.568Z,51.63
2019-05-06T06:12:22.991Z,46.07
2019-05-06T06:13:47.484Z,43.07
2019-05-06T06:15:38.815Z,52.17
2019-05-06T06:17:15.843Z,46.57
2019-05-06T06:18:55.101Z,38.97
2019-05-06T06:20:38.395Z,47.57
2019-05-06T06:22:06.843Z,39.93
2019-05-06T06:23:37.964Z,43.97
2019-05-06T06:25:04.686Z,44.20
2019-05-06T06:26:32.348Z,46.03
2019-05-06T06:27:57.842Z,40.90
2019-05-06T06:29:24.948Z,50.07
2019-05-06T06:30:59.912Z,45.67
2019-05-06T06:32:27.580Z,50.33
2019-05-06T06:33:56.151Z,42.73
2019-05-06T06:35:36.568Z,50.50
2019-05-06T06:37:22.481Z,44.13
2019-05-06T06:38:52.740Z,47.70
2019-05-06T06:40:19.745Z,56.50
2019-05-06T06:41:45.304Z,51.70
2019-05-06T06:43:16.121Z,46.70
2019-05-06T06:44:42.397Z,50.33
2019-05-06T06:46:09.442Z,58.50
2019-05-06T06:47:35.196Z,46.33
2019-05-06T06:49:03.092Z,45.63
2019-05-06T06:50:27.949Z,47.23
2019-05-06T06:51:53.856Z,55.00
2019-05-06T06:53:19.317Z,54.30
2019-05-06T06:54:44.765Z,55.40
2019-05-06T06:56:24.230Z,48.83
2019-05-06T06:58:16.585Z,52.47
2019-05-06T07:00:03.854Z,49.00
2019-05-06T07:01:33.584Z,49.07
2019-05-06T07:03:03.444Z,44.27
2019-05-06T07:04:36.916Z,46.73
2019-05-06T07:06:17.668Z,59.30
2019-05-06T07:07:47.300Z,53.87
2019-05-06T07:09:12.550Z,48.40
2019-05-06T07:10:44.061Z,50.60
2019-05-06T07:12:09.695Z,55.10
2019-05-06T07:13:35.430Z,48.80
2019-05-06T07:15:02.387Z,55.23
2019-05-06T07:16:28.260Z,49.37
2019-05-06T07:17:53.749Z,54.13
2019-05-06T07:19:25.475Z,38.47
2019-05-06T07:21:05.172Z,45.80
2019-05-06T07:22:36.840Z,45.07
2019-05-06T07:24:02.471Z,39.10
2019-05-06T07:25:27.950Z,43.10
2019-05-06T07:26:58.295Z,53.63
2019-05-06T07:28:24.159Z,55.30
2019-05-06T07:29:52.068Z,42.70
2019-05-06T07:31:22.287Z,40.27
2019-05-06T07:32:43.943Z,40.47
2019-05-06T07:34:09.414Z,43.60
2019-05-06T07:35:40.506Z,35.00
2019-05-06T07:37:03.492Z,46.30
2019-05-06T07:38:29.353Z,40.00
2019-05-06T07:39:54.823Z,39.20
2019-05-06T07:41:32.497Z,41.50
2019-05-06T07:42:59.011Z,42.53
2019-05-06T07:44:35.507Z,38.60
2019-05-06T07:46:04.237Z,38.10
2019-05-06T07:47:46.720Z,35.07
2019-05-06T07:49:12.708Z,44.00
2019-05-06T07:50:38.411Z,38.90
2019-05-06T07:52:04.357Z,40.70
2019-05-06T07:53:32.006Z,37.30
2019-05-06T07:54:57.414Z,40.77
2019-05-06T07:56:22.901Z,37.07
2019-05-06T07:57:49.972Z,42.90
2019-05-06T07:59:15.620Z,38.40
2019-05-06T08:00:42.268Z,39.27
2019-05-06T08:02:08.192Z,39.70
2019-05-06T08:03:33.771Z,36.40
2019-05-06T08:04:59.243Z,39.87
2019-05-06T08:06:24.824Z,51.57
2019-05-06T08:07:50.362Z,40.97
2019-05-06T08:09:15.844Z,34.33
2019-05-06T08:10:42.324Z,32.83
2019-05-06T08:12:08.013Z,32.10
2019-05-06T08:13:33.463Z,39.10
2019-05-06T08:14:59.112Z,37.30
2019-05-06T08:16:25.883Z,34.90
2019-05-06T08:17:52.424Z,36.57
2019-05-06T08:19:18.148Z,35.37
2019-05-06T08:20:43.651Z,31.57
2019-05-06T08:22:12.777Z,37.17
2019-05-06T08:23:43.268Z,32.93
2019-05-06T08:25:08.775Z,38.90
2019-05-06T08:26:34.275Z,37.87
2019-05-06T08:27:59.751Z,31.30
2019-05-06T08:29:25.339Z,32.00
2019-05-06T08:30:52.981Z,39.63
2019-05-06T08:32:18.120Z,35.70
2019-05-06T08:33:43.564Z,34.97
2019-05-06T08:35:10.049Z,36.93
2019-05-06T08:37:12.936Z,30.93
2019-05-06T08:38:57.406Z,30.87
2019-05-06T08:40:26.277Z,32.47
2019-05-06T08:41:50.088Z,34.60
2019-05-06T08:43:15.784Z,28.83
2019-05-06T08:44:42.728Z,45.80
2019-05-06T08:46:08.477Z,53.17
2019-05-06T08:47:34.114Z,31.63
2019-05-06T08:48:59.568Z,28.47
2019-05-06T08:51:02.974Z,36.93
2019-05-06T08:52:32.840Z,38.23
2019-05-06T08:54:03.200Z,42.70
2019-05-06T08:55:34.485Z,37.83
2019-05-06T08:56:59.983Z,34.83
2019-05-06T08:58:44.256Z,38.37
2019-05-06T09:00:10.134Z,35.60
2019-05-06T09:01:43.819Z,38.70
2019-05-06T09:03:09.459Z,30.10
2019-05-06T09:04:34.940Z,32.70
2019-05-06T09:06:03.012Z,35.07
2019-05-06T09:07:27.551Z,35.90
2019-05-06T09:08:56.357Z,30.70
2019-05-06T09:10:23.147Z,40.63
2019-05-06T09:11:48.716Z,31.73
2019-05-06T09:13:14.187Z,32.17
2019-05-06T09:14:39.904Z,28.93
2019-05-06T09:16:05.567Z,35.23
2019-05-06T09:17:32.896Z,42.17
2019-05-06T09:18:58.237Z,31.83
2019-05-06T09:20:23.680Z,43.30
2019-05-06T09:21:49.155Z,29.10
2019-05-06T09:23:14.731Z,36.50
2019-05-06T09:24:42.464Z,30.53
2019-05-06T09:26:08.974Z,32.13
2019-05-06T09:27:53.379Z,30.50
2019-05-06T09:29:24.809Z,24.20
2019-05-06T09:30:54.035Z,28.30
2019-05-06T09:32:25.437Z,32.70
2019-05-06T09:33:57.860Z,33.97
2019-05-06T09:35:23.550Z,34.57
2019-05-06T09:36:52.666Z,26.93
2019-05-06T09:38:17.852Z,34.67
2019-05-06T09:39:44.773Z,24.17
2019-05-06T09:41:12.302Z,38.58
2019-05-06T09:42:37.313Z,32.13
2019-05-06T09:44:03.155Z,36.70
2019-05-06T09:45:28.765Z,30.03
2019-05-06T09:46:54.229Z,30.73
2019-05-06T09:48:24.995Z,34.93
2019-05-06T09:49:52.859Z,31.53
2019-05-06T09:51:17.519Z,29.03
2019-05-06T09:52:43.029Z,28.23
2019-05-06T09:54:32.191Z,33.97
2019-05-06T09:56:19.085Z,30.60
2019-05-06T09:58:04.693Z,27.70
2019-05-06T09:59:32.055Z,28.67
2019-05-06T10:00:58.948Z,29.50
2019-05-06T10:02:24.589Z,30.93
2019-05-06T10:03:50.092Z,36.83
2019-05-06T10:05:15.732Z,36.17
2019-05-06T10:06:55.726Z,33.90
2019-05-06T10:08:08.525Z,37.87
2019-05-06T10:09:34.020Z,33.47
2019-05-06T10:11:00.091Z,29.60
2019-05-06T10:12:25.689Z,38.90
2019-05-06T10:13:52.466Z,35.73
2019-05-06T10:15:19.112Z,37.17
2019-05-06T10:16:44.708Z,26.67
2019-05-06T10:18:13.129Z,28.47
2019-05-06T10:19:38.561Z,34.30
2019-05-06T10:21:04.304Z,27.40
2019-05-06T10:22:29.739Z,31.40
2019-05-06T10:23:55.380Z,34.80
2019-05-06T10:25:22.662Z,35.73
2019-05-06T10:26:52.540Z,36.33
2019-05-06T10:28:33.999Z,27.33
2019-05-06T10:30:05.824Z,30.33
2019-05-06T10:31:35.471Z,28.70
2019-05-06T10:33:02.183Z,31.50
2019-05-06T10:34:27.755Z,31.53
2019-05-06T10:35:53.166Z,27.40
2019-05-06T10:37:33.498Z,27.10
2019-05-06T10:39:05.092Z,33.63
2019-05-06T10:40:35.056Z,25.23
2019-05-06T10:42:13.372Z,34.53
2019-05-06T10:44:05.968Z,29.13
2019-05-06T10:45:32.693Z,29.50
2019-05-06T10:46:58.287Z,27.77
2019-05-06T10:48:23.769Z,26.40
2019-05-06T10:49:49.196Z,34.73
2019-05-06T10:51:23.338Z,28.63
2019-05-06T10:53:06.348Z,29.80
2019-05-06T10:54:32.096Z,26.30
2019-05-06T10:56:02.153Z,35.10
2019-05-06T10:57:32.767Z,31.73
2019-05-06T10:58:58.504Z,27.07
2019-05-06T11:00:24.241Z,32.13
2019-05-06T11:01:50.528Z,31.27
2019-05-06T11:03:18.447Z,34.50
2019-05-06T11:04:43.958Z,27.53
2019-05-06T11:06:09.431Z,28.43
2019-05-06T11:07:35.416Z,27.17
2019-05-06T11:09:03.163Z,34.63
2019-05-06T11:10:37.055Z,27.63
2019-05-06T11:11:55.404Z,25.13
2019-05-06T11:13:20.935Z,30.63
2019-05-06T11:14:46.473Z,30.43
2019-05-06T11:16:12.941Z,27.07
2019-05-06T11:17:38.631Z,30.00
2019-05-06T11:19:05.204Z,35.93
2019-05-06T11:20:33.287Z,27.35
2019-05-06T11:21:57.929Z,26.03
2019-05-06T11:23:23.427Z,30.17
2019-05-06T11:24:48.847Z,26.47
2019-05-06T11:26:14.344Z,28.33
2019-05-06T11:27:42.550Z,34.13
2019-05-06T11:29:14.430Z,35.30
2019-05-06T11:30:56.734Z,33.53
2019-05-06T11:32:44.398Z,27.13
2019-05-06T11:34:35.604Z,33.83
2019-05-06T11:36:04.459Z,30.13
2019-05-06T11:37:54.252Z,34.27
2019-05-06T11:39:17.974Z,31.10
2019-05-06T11:40:43.468Z,40.63
2019-05-06T11:42:24.958Z,29.37
2019-05-06T11:43:36.279Z,35.30
2019-05-06T11:45:03.209Z,32.80
2019-05-06T11:46:28.913Z,44.27
2019-05-06T11:47:55.723Z,36.90
2019-05-06T11:49:23.319Z,33.97
2019-05-06T11:50:50.452Z,35.60
2019-05-06T11:52:15.904Z,34.53
2019-05-06T11:53:41.485Z,36.40
2019-05-06T11:55:07.681Z,30.87
2019-05-06T11:56:47.577Z,39.43
2019-05-06T11:58:02.388Z,35.60
2019-05-06T11:59:27.454Z,38.27
2019-05-06T12:00:52.922Z,37.53
2019-05-06T12:02:20.403Z,28.00
2019-05-06T12:03:45.904Z,35.07
2019-05-06T12:05:12.192Z,32.53
2019-05-06T12:06:37.741Z,35.37
2019-05-06T12:08:07.971Z,32.30
2019-05-06T12:09:32.821Z,33.50
2019-05-06T12:10:57.535Z,39.17
2019-05-06T12:12:23.428Z,39.50
2019-05-06T12:13:49.369Z,34.80
2019-05-06T12:15:15.835Z,32.33
2019-05-06T12:16:41.614Z,32.30
2019-05-06T12:18:07.319Z,33.63
2019-05-06T12:19:32.843Z,37.17
2019-05-06T12:21:08.282Z,38.47
2019-05-06T12:22:28.060Z,47.53
2019-05-06T12:23:53.983Z,34.03
2019-05-06T12:25:23.226Z,39.50
2019-05-06T12:26:46.887Z,31.50
2019-05-06T12:28:12.543Z,42.60
2019-05-06T12:29:38.422Z,34.60
2019-05-06T12:31:04.125Z,35.07
2019-05-06T12:32:35.172Z,43.87
2019-05-06T12:34:02.672Z,37.50
2019-05-06T12:35:32.121Z,36.73
2019-05-06T12:36:59.451Z,41.90
2019-05-06T12:38:30.973Z,34.10
2019-05-06T12:39:57.493Z,40.40
2019-05-06T12:41:23.104Z,36.30
2019-05-06T12:42:53.440Z,39.47
2019-05-06T12:44:19.215Z,39.80
2019-05-06T12:45:46.575Z,44.30
2019-05-06T12:47:32.881Z,40.97
2019-05-06T12:48:57.951Z,35.17
2019-05-06T12:50:23.448Z,38.37
2019-05-06T12:51:49.004Z,41.17
2019-05-06T12:53:14.465Z,36.63
2019-05-06T12:54:42.664Z,40.53
2019-05-06T12:56:07.258Z,39.80
2019-05-06T12:57:34.538Z,36.57
2019-05-06T12:59:01.887Z,45.97
2019-05-06T13:00:29.057Z,36.10
2019-05-06T13:01:54.633Z,38.70
2019-05-06T13:03:20.080Z,41.10
2019-05-06T13:04:54.481Z,36.17
2019-05-06T13:06:13.066Z,43.17
2019-05-06T13:07:46.875Z,41.43
2019-05-06T13:09:12.878Z,36.27
2019-05-06T13:10:38.713Z,36.87
2019-05-06T13:12:04.296Z,41.90
2019-05-06T13:13:29.904Z,33.97
2019-05-06T13:14:55.465Z,36.50
2019-05-06T13:16:22.821Z,39.23
2019-05-06T13:17:50.188Z,35.77
2019-05-06T13:19:17.278Z,36.67
2019-05-06T13:20:49.454Z,35.07
2019-05-06T13:22:14.403Z,38.40
2019-05-06T13:23:46.196Z,37.77
2019-05-06T13:25:13.510Z,39.50
2019-05-06T13:26:39.568Z,36.33
2019-05-06T13:28:07.137Z,37.30
2019-05-06T13:29:35.657Z,38.60
2019-05-06T13:31:15.796Z,43.03
2019-05-06T13:32:31.858Z,40.20
2019-05-06T13:34:17.041Z,37.80
2019-05-06T13:35:43.043Z,44.70
2019-05-06T13:37:08.668Z,43.63
2019-05-06T13:38:34.284Z,42.67
2019-05-06T13:40:02.151Z,46.63
2019-05-06T13:41:27.238Z,42.27
2019-05-06T13:43:12.702Z,42.60
2019-05-06T13:44:37.339Z,34.70
2019-05-06T13:46:07.341Z,49.23
2019-05-06T13:47:57.956Z,37.97
2019-05-06T13:49:43.013Z,37.60
2019-05-06T13:51:12.448Z,40.77
2019-05-06T13:52:39.464Z,44.70
2019-05-06T13:54:05.219Z,44.73
2019-05-06T13:55:30.719Z,43.03
2019-05-06T13:56:56.150Z,41.13
2019-05-06T13:58:21.616Z,44.73
2019-05-06T13:59:47.107Z,46.37
2019-05-06T14:01:15.841Z,56.00
2019-05-06T14:02:49.294Z,44.80
2019-05-06T14:04:15.134Z,38.50
2019-05-06T14:05:42.497Z,40.30
2019-05-06T14:07:08.368Z,39.90
2019-05-06T14:08:33.823Z,45.33
2019-05-06T14:09:59.439Z,42.73
2019-05-06T14:11:25.022Z,38.63
2019-05-06T14:12:52.983Z,44.53
2019-05-06T14:14:17.620Z,44.10
2019-05-06T14:15:43.432Z,45.37
2019-05-06T14:17:08.943Z,49.63
2019-05-06T14:18:37.534Z,45.80
2019-05-06T14:20:05.885Z,49.03
2019-05-06T14:21:32.604Z,49.07
2019-05-06T14:22:58.187Z,50.17
2019-05-06T14:24:23.679Z,36.30
2019-05-06T14:26:22.742Z,45.80
2019-05-06T14:27:49.813Z,42.83
2019-05-06T14:29:23.619Z,45.33
2019-05-06T14:30:54.758Z,42.13
2019-05-06T14:32:23.652Z,40.40
2019-05-06T14:33:48.496Z,43.57
2019-05-06T14:35:15.569Z,46.83
2019-05-06T14:36:43.430Z,37.93
2019-05-06T14:38:08.273Z,45.37
2019-05-06T14:39:50.185Z,64.33
2019-05-06T14:41:13.539Z,49.37
2019-05-06T14:42:39.039Z,49.10
2019-05-06T14:44:05.269Z,39.30
2019-05-06T14:45:33.266Z,45.57
2019-05-06T14:47:05.740Z,67.53
2019-05-06T14:48:33.093Z,47.80
2019-05-06T14:49:58.532Z,43.47
2019-05-06T14:51:24.003Z,50.20
2019-05-06T14:52:49.685Z,40.37
2019-05-06T14:54:15.184Z,46.10
2019-05-06T14:55:40.877Z,47.50
2019-05-06T14:57:12.295Z,47.87
2019-05-06T14:58:45.725Z,41.77
2019-05-06T15:00:13.208Z,43.80
2019-05-06T15:01:40.508Z,45.07
2019-05-06T15:03:06.167Z,49.57
2019-05-06T15:04:32.523Z,43.50
2019-05-06T15:05:58.344Z,48.13
2019-05-06T15:07:23.964Z,51.43
2019-05-06T15:10:28.730Z,49.00
2019-05-06T15:11:54.827Z,47.90
2019-05-06T15:13:22.732Z,43.60
2019-05-06T15:14:52.662Z,46.83
2019-05-06T15:16:18.637Z,48.30
2019-05-06T15:17:45.912Z,46.17
2019-05-06T15:19:12.859Z,49.10
2019-05-06T15:20:42.526Z,50.07
2019-05-06T15:22:08.334Z,45.13
2019-05-06T15:23:34.055Z,46.63
2019-05-06T15:24:59.523Z,48.40
2019-05-06T15:26:26.412Z,46.93
2019-05-06T15:27:53.178Z,55.07
2019-05-06T15:29:18.935Z,56.30
2019-05-06T15:31:06.635Z,44.47
2019-05-06T15:32:40.404Z,44.30
2019-05-06T15:34:09.159Z,49.43
2019-05-06T15:36:04.156Z,44.37
2019-05-06T15:37:48.474Z,49.00
2019-05-06T15:39:14.123Z,48.00
2019-05-06T15:40:39.643Z,48.37
2019-05-06T15:42:05.248Z,47.50
2019-05-06T15:43:33.216Z,64.47
2019-05-06T15:44:57.956Z,44.47
2019-05-06T15:46:23.445Z,48.40
2019-05-06T15:47:48.907Z,47.33
2019-05-06T15:49:14.492Z,56.50
2019-05-06T15:50:43.244Z,59.10
2019-05-06T15:52:07.254Z,56.93
2019-05-06T15:53:33.248Z,52.23
2019-05-06T15:54:59.071Z,49.07
2019-05-06T15:56:24.542Z,39.70
2019-05-06T15:57:52.436Z,60.47
2019-05-06T15:59:17.248Z,50.90
2019-05-06T16:00:42.920Z,53.77
2019-05-06T16:02:08.408Z,54.70
2019-05-06T16:03:33.896Z,46.70
2019-05-06T16:04:59.596Z,48.73
2019-05-06T16:06:25.080Z,48.80
2019-05-06T16:08:09.572Z,44.90
2019-05-06T16:09:35.024Z,50.63
2019-05-06T16:11:02.726Z,57.47
2019-05-06T16:12:27.624Z,51.37
2019-05-06T16:13:53.495Z,53.00
2019-05-06T16:15:19.350Z,48.80
2019-05-06T16:16:44.875Z,56.63
2019-05-06T16:18:12.779Z,53.33
2019-05-06T16:19:37.419Z,51.60
2019-05-06T16:21:03.105Z,56.17
2019-05-06T16:22:28.539Z,60.43
2019-05-06T16:24:06.943Z,55.80
2019-05-06T16:25:34.031Z,59.63
2019-05-06T16:26:59.794Z,56.53
2019-05-06T16:28:25.868Z,55.37
2019-05-06T16:29:52.949Z,49.77
2019-05-06T16:31:18.695Z,59.00
2019-05-06T16:32:44.973Z,53.40
2019-05-06T16:34:12.063Z,49.87
2019-05-06T16:35:42.643Z,44.80
2019-05-06T16:37:08.234Z,49.47
2019-05-06T16:38:35.055Z,56.87
2019-05-06T16:40:02.818Z,51.90
2019-05-06T16:41:27.983Z,51.77
2019-05-06T16:42:54.569Z,51.63
2019-05-06T16:44:20.284Z,67.37
2019-05-06T16:45:47.383Z,59.70
2019-05-06T16:47:20.076Z,61.47
2019-05-06T16:48:45.669Z,55.50
2019-05-06T16:50:13.428Z,55.27
2019-05-06T16:51:39.068Z,54.00
2019-05-06T16:53:04.516Z,57.23
2019-05-06T16:54:31.531Z,60.30
2019-05-06T16:56:17.719Z,55.00
2019-05-06T16:57:52.466Z,48.10
2019-05-06T16:59:39.078Z,53.07
2019-05-06T17:01:05.231Z,56.30
2019-05-06T17:02:38.772Z,62.17
2019-05-06T17:04:16.142Z,52.20
2019-05-06T17:06:14.175Z,63.53
2019-05-06T17:07:39.690Z,57.78
2019-05-06T17:09:20.904Z,60.70
2019-05-06T17:10:43.687Z,52.53
2019-05-06T17:12:09.523Z,68.63
2019-05-06T17:13:37.656Z,55.20
2019-05-06T17:15:03.775Z,57.50
2019-05-06T17:16:29.642Z,60.33
2019-05-06T17:17:55.215Z,49.93
2019-05-06T17:19:22.867Z,60.40
2019-05-06T17:20:47.965Z,56.67
2019-05-06T17:22:18.534Z,57.53
2019-05-06T17:23:52.035Z,53.27
2019-05-06T17:25:17.488Z,45.27
2019-05-06T17:26:43.400Z,51.77
2019-05-06T17:28:33.691Z,53.33
2019-05-06T17:30:17.951Z,47.90
2019-05-06T17:32:04.014Z,49.60
2019-05-06T17:33:48.821Z,55.10
2019-05-06T17:35:14.777Z,55.37
2019-05-06T17:36:42.160Z,51.80
2019-05-06T17:38:14.623Z,55.73
2019-05-06T17:39:42.336Z,56.60
2019-05-06T17:41:12.280Z,46.70
2019-05-06T17:42:37.487Z,54.47
2019-05-06T17:44:03.059Z,50.70
2019-05-06T17:45:58.458Z,45.77
2019-05-06T17:47:39.696Z,63.83
2019-05-06T17:49:20.873Z,54.20
2019-05-06T17:51:03.992Z,61.30
2019-05-06T17:52:29.532Z,58.00
2019-05-06T17:53:55.316Z,55.77
2019-05-06T17:55:22.488Z,61.87
2019-05-06T17:56:48.114Z,49.83
2019-05-06T17:58:13.652Z,60.30
2019-05-06T17:59:39.219Z,59.37
2019-05-06T18:01:05.559Z,52.90
2019-05-06T18:02:32.614Z,54.73
2019-05-06T18:03:58.255Z,73.70
2019-05-06T18:05:23.909Z,57.70
2019-05-06T18:06:49.449Z,54.43
2019-05-06T18:08:15.007Z,55.83
2019-05-06T18:09:42.543Z,60.60
2019-05-06T18:11:07.784Z,53.03
2019-05-06T18:12:33.313Z,61.13
2019-05-06T18:13:58.844Z,57.13
2019-05-06T18:15:24.400Z,51.43
2019-05-06T18:16:53.627Z,54.87
2019-05-06T18:18:17.483Z,49.40
2019-05-06T18:19:43.163Z,51.47
2019-05-06T18:21:08.835Z,54.20
2019-05-06T18:22:34.395Z,55.83
2019-05-06T18:23:59.851Z,57.53
2019-05-06T18:25:25.403Z,45.40
2019-05-06T18:26:52.830Z,58.87
2019-05-06T18:28:18.043Z,53.30
2019-05-06T18:29:43.539Z,60.60
2019-05-06T18:31:09.032Z,49.93
2019-05-06T18:32:34.772Z,59.23
2019-05-06T18:34:00.276Z,53.57
2019-05-06T18:35:25.712Z,48.07
2019-05-06T18:36:52.433Z,53.40
2019-05-06T18:38:18.184Z,53.80
2019-05-06T18:39:43.630Z,54.20
2019-05-06T18:41:09.322Z,59.63
2019-05-06T18:42:34.779Z,51.23
2019-05-06T18:44:00.268Z,53.40
2019-05-06T18:45:25.712Z,61.33
2019-05-06T18:46:53.095Z,60.90
2019-05-06T18:48:18.242Z,54.77
2019-05-06T18:49:44.043Z,54.57
2019-05-06T18:51:12.469Z,51.20
2019-05-06T18:52:37.431Z,56.13
2019-05-06T18:54:03.189Z,59.20
2019-05-06T18:55:29.346Z,63.23
2019-05-06T18:56:54.969Z,56.00
2019-05-06T18:58:22.256Z,59.70
2019-05-06T18:59:47.507Z,53.73
2019-05-06T19:01:13.369Z,49.17
2019-05-06T19:02:39.076Z,49.30
2019-05-06T19:04:23.686Z,56.13